<?xml version="1.0" encoding="utf-8"?>
<gpx xmlns:xsi="http://www.w3.org/2001/XMLSchema-instance" xmlns:xsd="http://www.w3.org/2001/XMLSchema" version="1.1" creator="Shapelink.com" xmlns="http://www.topografix.com/GPX/1/1" xmlns:gpxtpx="http://www.garmin.com/xmlschemas/TrackPointExtension/v1">
  <metadata>
    <name>Cycling 19.40 km, 2020-07-11</name>
    <desc></desc>
    <author><name>Marian Moron</name></author> 
    <time>2020-07-11T15:01:03Z</time>
  </metadata>
  <trk>
    <name>Cycling 19.40 km, 2020-07-11</name>
    <trkseg>
      <trkpt lat="51.229020791664" lon="4.448866846511">
        <ele>67.2</ele>
        <time>2020-07-11T15:01:03Z</time>
      </trkpt>
      <trkpt lat="51.228728095716" lon="4.449013362123">
        <ele>0</ele>
        <time>2020-07-11T15:01:13Z</time>
      </trkpt>
      <trkpt lat="51.228689874252" lon="4.449011015191">
        <ele>0</ele>
        <time>2020-07-11T15:01:15Z</time>
      </trkpt>
      <trkpt lat="51.228662716896" lon="4.448976817039">
        <ele>0</ele>
        <time>2020-07-11T15:01:17Z</time>
      </trkpt>
      <trkpt lat="51.229023138596" lon="4.448514303797">
        <ele>0</ele>
        <time>2020-07-11T15:01:48Z</time>
      </trkpt>
      <trkpt lat="51.229404012132" lon="4.44873365812">
        <ele>0</ele>
        <time>2020-07-11T15:02:11Z</time>
      </trkpt>
      <trkpt lat="51.229103521017" lon="4.448282879538">
        <ele>0</ele>
        <time>2020-07-11T15:18:38Z</time>
      </trkpt>
      <trkpt lat="51.228785679369" lon="4.447821791219">
        <ele>4.8</ele>
        <time>2020-07-11T15:19:01Z</time>
      </trkpt>
      <trkpt lat="51.228433639569" lon="4.447158028558">
        <ele>5.2</ele>
        <time>2020-07-11T15:19:25Z</time>
      </trkpt>
      <trkpt lat="51.228375469183" lon="4.447178648032">
        <ele>6</ele>
        <time>2020-07-11T15:19:27Z</time>
      </trkpt>
      <trkpt lat="51.227896108322" lon="4.447672174304">
        <ele>8</ele>
        <time>2020-07-11T15:19:44Z</time>
      </trkpt>
      <trkpt lat="51.227435942012" lon="4.448215153786">
        <ele>9.6</ele>
        <time>2020-07-11T15:20:01Z</time>
      </trkpt>
      <trkpt lat="51.227009051845" lon="4.448789313936">
        <ele>6</ele>
        <time>2020-07-11T15:20:16Z</time>
      </trkpt>
      <trkpt lat="51.226762875442" lon="4.449331874323">
        <ele>1.4</ele>
        <time>2020-07-11T15:20:32Z</time>
      </trkpt>
      <trkpt lat="51.226547125336" lon="4.44956598079">
        <ele>0.8</ele>
        <time>2020-07-11T15:20:42Z</time>
      </trkpt>
      <trkpt lat="51.226267169876" lon="4.448860140991">
        <ele>0</ele>
        <time>2020-07-11T15:21:04Z</time>
      </trkpt>
      <trkpt lat="51.226217465209" lon="4.448895931704">
        <ele>0</ele>
        <time>2020-07-11T15:21:06Z</time>
      </trkpt>
      <trkpt lat="51.225857127328" lon="4.449562879487">
        <ele>0</ele>
        <time>2020-07-11T15:21:22Z</time>
      </trkpt>
      <trkpt lat="51.225313393475" lon="4.449724482519">
        <ele>0</ele>
        <time>2020-07-11T15:21:39Z</time>
      </trkpt>
      <trkpt lat="51.224907038963" lon="4.450019273942">
        <ele>0</ele>
        <time>2020-07-11T15:21:51Z</time>
      </trkpt>
      <trkpt lat="51.224490123257" lon="4.450660824568">
        <ele>0</ele>
        <time>2020-07-11T15:22:03Z</time>
      </trkpt>
      <trkpt lat="51.224331789166" lon="4.450910605188">
        <ele>0</ele>
        <time>2020-07-11T15:22:08Z</time>
      </trkpt>
      <trkpt lat="51.223849829916" lon="4.451365155625">
        <ele>0</ele>
        <time>2020-07-11T15:22:22Z</time>
      </trkpt>
      <trkpt lat="51.223312131031" lon="4.451199194005">
        <ele>0</ele>
        <time>2020-07-11T15:22:38Z</time>
      </trkpt>
      <trkpt lat="51.222774348327" lon="4.451049493271">
        <ele>0</ele>
        <time>2020-07-11T15:22:55Z</time>
      </trkpt>
      <trkpt lat="51.222238744917" lon="4.451161140179">
        <ele>0</ele>
        <time>2020-07-11T15:23:09Z</time>
      </trkpt>
      <trkpt lat="51.221727532836" lon="4.45149717055">
        <ele>0</ele>
        <time>2020-07-11T15:23:23Z</time>
      </trkpt>
      <trkpt lat="51.221184804811" lon="4.451656678107">
        <ele>0</ele>
        <time>2020-07-11T15:23:41Z</time>
      </trkpt>
      <trkpt lat="51.220631767049" lon="4.451790788507">
        <ele>0</ele>
        <time>2020-07-11T15:23:56Z</time>
      </trkpt>
      <trkpt lat="51.220071353215" lon="4.451916852283">
        <ele>1</ele>
        <time>2020-07-11T15:24:12Z</time>
      </trkpt>
      <trkpt lat="51.21951856691" lon="4.452009556097">
        <ele>0</ele>
        <time>2020-07-11T15:24:28Z</time>
      </trkpt>
      <trkpt lat="51.219136184632" lon="4.452066636836">
        <ele>0</ele>
        <time>2020-07-11T15:24:39Z</time>
      </trkpt>
      <trkpt lat="51.219051024528" lon="4.452021290757">
        <ele>0</ele>
        <time>2020-07-11T15:24:41Z</time>
      </trkpt>
      <trkpt lat="51.218978940188" lon="4.451914002437">
        <ele>0</ele>
        <time>2020-07-11T15:24:43Z</time>
      </trkpt>
      <trkpt lat="51.218907107305" lon="4.451799840959">
        <ele>0</ele>
        <time>2020-07-11T15:24:45Z</time>
      </trkpt>
      <trkpt lat="51.218815241681" lon="4.451729684456">
        <ele>0</ele>
        <time>2020-07-11T15:24:47Z</time>
      </trkpt>
      <trkpt lat="51.218521456086" lon="4.451688026413">
        <ele>0</ele>
        <time>2020-07-11T15:24:53Z</time>
      </trkpt>
      <trkpt lat="51.218232112898" lon="4.452303760787">
        <ele>0</ele>
        <time>2020-07-11T15:25:13Z</time>
      </trkpt>
      <trkpt lat="51.218175618892" lon="4.453216465878">
        <ele>0</ele>
        <time>2020-07-11T15:25:28Z</time>
      </trkpt>
      <trkpt lat="51.218168494277" lon="4.454114670282">
        <ele>0</ele>
        <time>2020-07-11T15:25:44Z</time>
      </trkpt>
      <trkpt lat="51.218160447653" lon="4.455024106432">
        <ele>0</ele>
        <time>2020-07-11T15:26:02Z</time>
      </trkpt>
      <trkpt lat="51.218093895367" lon="4.455894399109">
        <ele>0</ele>
        <time>2020-07-11T15:26:20Z</time>
      </trkpt>
      <trkpt lat="51.218058691387" lon="4.456746335425">
        <ele>0</ele>
        <time>2020-07-11T15:26:35Z</time>
      </trkpt>
      <trkpt lat="51.218005969236" lon="4.457603217062">
        <ele>0</ele>
        <time>2020-07-11T15:26:50Z</time>
      </trkpt>
      <trkpt lat="51.217984846848" lon="4.458472503911">
        <ele>0</ele>
        <time>2020-07-11T15:27:06Z</time>
      </trkpt>
      <trkpt lat="51.217957689492" lon="4.45935687818">
        <ele>0</ele>
        <time>2020-07-11T15:27:20Z</time>
      </trkpt>
      <trkpt lat="51.217935309819" lon="4.460217783129">
        <ele>0</ele>
        <time>2020-07-11T15:27:34Z</time>
      </trkpt>
      <trkpt lat="51.217902871866" lon="4.46107013854">
        <ele>0</ele>
        <time>2020-07-11T15:27:50Z</time>
      </trkpt>
      <trkpt lat="51.217865404773" lon="4.461930456756">
        <ele>0</ele>
        <time>2020-07-11T15:28:07Z</time>
      </trkpt>
      <trkpt lat="51.217814023726" lon="4.462788679497">
        <ele>0</ele>
        <time>2020-07-11T15:28:22Z</time>
      </trkpt>
      <trkpt lat="51.21774663325" lon="4.46365930745">
        <ele>0</ele>
        <time>2020-07-11T15:28:38Z</time>
      </trkpt>
      <trkpt lat="51.217726684328" lon="4.464542843529">
        <ele>0</ele>
        <time>2020-07-11T15:28:54Z</time>
      </trkpt>
      <trkpt lat="51.217669016856" lon="4.465425709056">
        <ele>0</ele>
        <time>2020-07-11T15:29:10Z</time>
      </trkpt>
      <trkpt lat="51.217620234198" lon="4.46631553156">
        <ele>0</ele>
        <time>2020-07-11T15:29:25Z</time>
      </trkpt>
      <trkpt lat="51.217618725456" lon="4.467207952453">
        <ele>0</ele>
        <time>2020-07-11T15:29:43Z</time>
      </trkpt>
      <trkpt lat="51.217592322471" lon="4.468091739989">
        <ele>0</ele>
        <time>2020-07-11T15:29:59Z</time>
      </trkpt>
      <trkpt lat="51.217605482054" lon="4.468280500377">
        <ele>0</ele>
        <time>2020-07-11T15:30:03Z</time>
      </trkpt>
      <trkpt lat="51.217354863244" lon="4.469023471993">
        <ele>0</ele>
        <time>2020-07-11T15:30:20Z</time>
      </trkpt>
      <trkpt lat="51.216877514039" lon="4.469483386846">
        <ele>0</ele>
        <time>2020-07-11T15:30:38Z</time>
      </trkpt>
      <trkpt lat="51.216407457087" lon="4.46992393951">
        <ele>0</ele>
        <time>2020-07-11T15:30:55Z</time>
      </trkpt>
      <trkpt lat="51.215925162561" lon="4.470396343394">
        <ele>0</ele>
        <time>2020-07-11T15:31:11Z</time>
      </trkpt>
      <trkpt lat="51.21562936531" lon="4.471071253982">
        <ele>0</ele>
        <time>2020-07-11T15:31:28Z</time>
      </trkpt>
      <trkpt lat="51.215182861497" lon="4.471475177743">
        <ele>0</ele>
        <time>2020-07-11T15:31:43Z</time>
      </trkpt>
      <trkpt lat="51.21470567993" lon="4.471822775136">
        <ele>0</ele>
        <time>2020-07-11T15:32:02Z</time>
      </trkpt>
      <trkpt lat="51.214436537121" lon="4.472066688426">
        <ele>0</ele>
        <time>2020-07-11T15:32:18Z</time>
      </trkpt>
      <trkpt lat="51.214483643399" lon="4.472901860942">
        <ele>0</ele>
        <time>2020-07-11T15:32:37Z</time>
      </trkpt>
      <trkpt lat="51.214385826626" lon="4.473689424266">
        <ele>0</ele>
        <time>2020-07-11T15:32:55Z</time>
      </trkpt>
      <trkpt lat="51.214009395497" lon="4.473726975178">
        <ele>0</ele>
        <time>2020-07-11T15:33:09Z</time>
      </trkpt>
      <trkpt lat="51.213990368584" lon="4.473602839239">
        <ele>0</ele>
        <time>2020-07-11T15:33:12Z</time>
      </trkpt>
      <trkpt lat="51.213953739681" lon="4.473580711023">
        <ele>0</ele>
        <time>2020-07-11T15:33:14Z</time>
      </trkpt>
      <trkpt lat="51.213428865103" lon="4.473757401475">
        <ele>0</ele>
        <time>2020-07-11T15:33:36Z</time>
      </trkpt>
      <trkpt lat="51.213326354466" lon="4.473778607682">
        <ele>0</ele>
        <time>2020-07-11T15:33:41Z</time>
      </trkpt>
      <trkpt lat="51.213299951481" lon="4.474531553759">
        <ele>0</ele>
        <time>2020-07-11T15:34:05Z</time>
      </trkpt>
      <trkpt lat="51.213467421843" lon="4.475363373515">
        <ele>0</ele>
        <time>2020-07-11T15:34:20Z</time>
      </trkpt>
      <trkpt lat="51.213608237763" lon="4.476218662591">
        <ele>0</ele>
        <time>2020-07-11T15:34:37Z</time>
      </trkpt>
      <trkpt lat="51.21375684885" lon="4.477098929729">
        <ele>0</ele>
        <time>2020-07-11T15:34:54Z</time>
      </trkpt>
      <trkpt lat="51.214114085428" lon="4.477791777583">
        <ele>0</ele>
        <time>2020-07-11T15:35:11Z</time>
      </trkpt>
      <trkpt lat="51.214018699406" lon="4.478568276799">
        <ele>0</ele>
        <time>2020-07-11T15:35:30Z</time>
      </trkpt>
      <trkpt lat="51.214207124518" lon="4.479384338583">
        <ele>0</ele>
        <time>2020-07-11T15:35:50Z</time>
      </trkpt>
      <trkpt lat="51.214358585451" lon="4.479831848224">
        <ele>0</ele>
        <time>2020-07-11T15:36:02Z</time>
      </trkpt>
      <trkpt lat="51.214386580997" lon="4.479915248129">
        <ele>0</ele>
        <time>2020-07-11T15:37:57Z</time>
      </trkpt>
      <trkpt lat="51.214430334515" lon="4.480234682338">
        <ele>0</ele>
        <time>2020-07-11T15:38:09Z</time>
      </trkpt>
      <trkpt lat="51.214453971473" lon="4.480262258789">
        <ele>0</ele>
        <time>2020-07-11T15:38:12Z</time>
      </trkpt>
      <trkpt lat="51.214504262873" lon="4.480257397287">
        <ele>0</ele>
        <time>2020-07-11T15:38:22Z</time>
      </trkpt>
      <trkpt lat="51.214858901062" lon="4.480394692809">
        <ele>0</ele>
        <time>2020-07-11T15:38:39Z</time>
      </trkpt>
      <trkpt lat="51.214890836101" lon="4.480372229317">
        <ele>0</ele>
        <time>2020-07-11T15:38:48Z</time>
      </trkpt>
      <trkpt lat="51.215428367348" lon="4.480267455567">
        <ele>0</ele>
        <time>2020-07-11T15:39:09Z</time>
      </trkpt>
      <trkpt lat="51.215990960476" lon="4.480281537159">
        <ele>0</ele>
        <time>2020-07-11T15:39:29Z</time>
      </trkpt>
      <trkpt lat="51.216533185587" lon="4.480402739433">
        <ele>0</ele>
        <time>2020-07-11T15:39:50Z</time>
      </trkpt>
      <trkpt lat="51.216557828373" lon="4.480493599229">
        <ele>0</ele>
        <time>2020-07-11T15:39:51Z</time>
      </trkpt>
      <trkpt lat="51.216469315509" lon="4.481328855564">
        <ele>0</ele>
        <time>2020-07-11T15:40:08Z</time>
      </trkpt>
      <trkpt lat="51.216867036664" lon="4.481459026471">
        <ele>0</ele>
        <time>2020-07-11T15:40:28Z</time>
      </trkpt>
      <trkpt lat="51.216939540099" lon="4.481461876317">
        <ele>0</ele>
        <time>2020-07-11T15:40:32Z</time>
      </trkpt>
      <trkpt lat="51.216636199138" lon="4.481907206664">
        <ele>0</ele>
        <time>2020-07-11T15:40:53Z</time>
      </trkpt>
      <trkpt lat="51.216063715368" lon="4.481944338481">
        <ele>0</ele>
        <time>2020-07-11T15:41:10Z</time>
      </trkpt>
      <trkpt lat="51.21551034233" lon="4.481866386811">
        <ele>0</ele>
        <time>2020-07-11T15:41:26Z</time>
      </trkpt>
      <trkpt lat="51.214956717835" lon="4.481642003348">
        <ele>0</ele>
        <time>2020-07-11T15:41:41Z</time>
      </trkpt>
      <trkpt lat="51.214449529066" lon="4.481274540852">
        <ele>0</ele>
        <time>2020-07-11T15:41:55Z</time>
      </trkpt>
      <trkpt lat="51.213933539302" lon="4.480902971225">
        <ele>0</ele>
        <time>2020-07-11T15:42:10Z</time>
      </trkpt>
      <trkpt lat="51.213424674153" lon="4.480509105744">
        <ele>0</ele>
        <time>2020-07-11T15:42:25Z</time>
      </trkpt>
      <trkpt lat="51.212940032695" lon="4.480087328536">
        <ele>0</ele>
        <time>2020-07-11T15:42:41Z</time>
      </trkpt>
      <trkpt lat="51.212432424831" lon="4.479712992882">
        <ele>0</ele>
        <time>2020-07-11T15:42:58Z</time>
      </trkpt>
      <trkpt lat="51.211967145562" lon="4.479247294518">
        <ele>0</ele>
        <time>2020-07-11T15:43:15Z</time>
      </trkpt>
      <trkpt lat="51.21153396897" lon="4.478662824631">
        <ele>0</ele>
        <time>2020-07-11T15:43:35Z</time>
      </trkpt>
      <trkpt lat="51.210889149403" lon="4.477442755267">
        <ele>0</ele>
        <time>2020-07-11T15:44:08Z</time>
      </trkpt>
      <trkpt lat="51.210668621614" lon="4.476621161429">
        <ele>0</ele>
        <time>2020-07-11T15:44:24Z</time>
      </trkpt>
      <trkpt lat="51.210451614223" lon="4.475804009998">
        <ele>0</ele>
        <time>2020-07-11T15:44:40Z</time>
      </trkpt>
      <trkpt lat="51.21026997845" lon="4.474955426442">
        <ele>0</ele>
        <time>2020-07-11T15:44:57Z</time>
      </trkpt>
      <trkpt lat="51.210069567221" lon="4.474135341346">
        <ele>0</ele>
        <time>2020-07-11T15:45:13Z</time>
      </trkpt>
      <trkpt lat="51.209754575419" lon="4.473434363049">
        <ele>0</ele>
        <time>2020-07-11T15:45:28Z</time>
      </trkpt>
      <trkpt lat="51.209332798211" lon="4.472851150447">
        <ele>0</ele>
        <time>2020-07-11T15:45:43Z</time>
      </trkpt>
      <trkpt lat="51.209179325622" lon="4.472696085297">
        <ele>0</ele>
        <time>2020-07-11T15:45:48Z</time>
      </trkpt>
      <trkpt lat="51.208987631569" lon="4.472497350448">
        <ele>0</ele>
        <time>2020-07-11T15:46:40Z</time>
      </trkpt>
      <trkpt lat="51.208976399823" lon="4.472488297996">
        <ele>0</ele>
        <time>2020-07-11T15:46:41Z</time>
      </trkpt>
      <trkpt lat="51.208843462889" lon="4.47244856779">
        <ele>0</ele>
        <time>2020-07-11T15:46:48Z</time>
      </trkpt>
      <trkpt lat="51.208815970257" lon="4.472604974044">
        <ele>0</ele>
        <time>2020-07-11T15:47:29Z</time>
      </trkpt>
      <trkpt lat="51.208820580302" lon="4.472807648386">
        <ele>0</ele>
        <time>2020-07-11T15:47:36Z</time>
      </trkpt>
      <trkpt lat="51.208753022188" lon="4.473657070132">
        <ele>0</ele>
        <time>2020-07-11T15:47:52Z</time>
      </trkpt>
      <trkpt lat="51.208651601198" lon="4.474557872925">
        <ele>0</ele>
        <time>2020-07-11T15:48:07Z</time>
      </trkpt>
      <trkpt lat="51.208596196839" lon="4.475136224025">
        <ele>0</ele>
        <time>2020-07-11T15:48:16Z</time>
      </trkpt>
      <trkpt lat="51.208503241568" lon="4.476002409571">
        <ele>0</ele>
        <time>2020-07-11T15:48:30Z</time>
      </trkpt>
      <trkpt lat="51.208406011528" lon="4.476897345034">
        <ele>0</ele>
        <time>2020-07-11T15:48:45Z</time>
      </trkpt>
      <trkpt lat="51.208244157039" lon="4.477746347685">
        <ele>0</ele>
        <time>2020-07-11T15:48:59Z</time>
      </trkpt>
      <trkpt lat="51.207973254031" lon="4.478537012312">
        <ele>0</ele>
        <time>2020-07-11T15:49:14Z</time>
      </trkpt>
      <trkpt lat="51.207565726053" lon="4.479144364786">
        <ele>0</ele>
        <time>2020-07-11T15:49:31Z</time>
      </trkpt>
      <trkpt lat="51.207123077914" lon="4.479634035384">
        <ele>0</ele>
        <time>2020-07-11T15:49:48Z</time>
      </trkpt>
      <trkpt lat="51.206676155006" lon="4.480164777292">
        <ele>0</ele>
        <time>2020-07-11T15:50:03Z</time>
      </trkpt>
      <trkpt lat="51.206246163536" lon="4.480692334078">
        <ele>0</ele>
        <time>2020-07-11T15:50:17Z</time>
      </trkpt>
      <trkpt lat="51.205801168465" lon="4.481183932513">
        <ele>0</ele>
        <time>2020-07-11T15:50:31Z</time>
      </trkpt>
      <trkpt lat="51.20528777709" lon="4.48138534957">
        <ele>0</ele>
        <time>2020-07-11T15:50:47Z</time>
      </trkpt>
      <trkpt lat="51.204747060721" lon="4.481411249641">
        <ele>0</ele>
        <time>2020-07-11T15:51:05Z</time>
      </trkpt>
      <trkpt lat="51.204215396804" lon="4.481540917634">
        <ele>0</ele>
        <time>2020-07-11T15:51:23Z</time>
      </trkpt>
      <trkpt lat="51.203949355298" lon="4.482305179276">
        <ele>9.2</ele>
        <time>2020-07-11T15:51:40Z</time>
      </trkpt>
      <trkpt lat="51.203837540752" lon="4.482591421161">
        <ele>9.8</ele>
        <time>2020-07-11T15:51:47Z</time>
      </trkpt>
      <trkpt lat="51.203653977142" lon="4.483326429972">
        <ele>0.2</ele>
        <time>2020-07-11T15:52:08Z</time>
      </trkpt>
      <trkpt lat="51.203414338621" lon="4.483833032008">
        <ele>0</ele>
        <time>2020-07-11T15:52:23Z</time>
      </trkpt>
      <trkpt lat="51.20328534118" lon="4.48394182907">
        <ele>0</ele>
        <time>2020-07-11T15:52:53Z</time>
      </trkpt>
      <trkpt lat="51.203212083374" lon="4.483922634519">
        <ele>0</ele>
        <time>2020-07-11T15:52:57Z</time>
      </trkpt>
      <trkpt lat="51.203171682616" lon="4.48392674165">
        <ele>0</ele>
        <time>2020-07-11T15:52:59Z</time>
      </trkpt>
      <trkpt lat="51.203067495599" lon="4.484069820683">
        <ele>0</ele>
        <time>2020-07-11T15:53:06Z</time>
      </trkpt>
      <trkpt lat="51.203043858641" lon="4.484088093225">
        <ele>0</ele>
        <time>2020-07-11T15:53:16Z</time>
      </trkpt>
      <trkpt lat="51.20303639875" lon="4.484098235324">
        <ele>0</ele>
        <time>2020-07-11T15:53:17Z</time>
      </trkpt>
      <trkpt lat="51.202729872667" lon="4.484807763159">
        <ele>0</ele>
        <time>2020-07-11T15:53:42Z</time>
      </trkpt>
      <trkpt lat="51.202260486267" lon="4.485250746574">
        <ele>0</ele>
        <time>2020-07-11T15:54:02Z</time>
      </trkpt>
      <trkpt lat="51.201879948007" lon="4.485866732405">
        <ele>0</ele>
        <time>2020-07-11T15:54:23Z</time>
      </trkpt>
      <trkpt lat="51.201507791647" lon="4.486545414848">
        <ele>1.6</ele>
        <time>2020-07-11T15:54:40Z</time>
      </trkpt>
      <trkpt lat="51.201140748246" lon="4.487223762015">
        <ele>0</ele>
        <time>2020-07-11T15:54:55Z</time>
      </trkpt>
      <trkpt lat="51.200814943793" lon="4.487933038393">
        <ele>0</ele>
        <time>2020-07-11T15:55:10Z</time>
      </trkpt>
      <trkpt lat="51.200737327399" lon="4.48803471084">
        <ele>0</ele>
        <time>2020-07-11T15:55:14Z</time>
      </trkpt>
      <trkpt lat="51.200702710152" lon="4.488052145192">
        <ele>0</ele>
        <time>2020-07-11T16:00:19Z</time>
      </trkpt>
      <trkpt lat="51.200311359241" lon="4.488694114913">
        <ele>0</ele>
        <time>2020-07-11T16:00:46Z</time>
      </trkpt>
      <trkpt lat="51.199977927259" lon="4.489383190912">
        <ele>0</ele>
        <time>2020-07-11T16:01:07Z</time>
      </trkpt>
      <trkpt lat="51.199606022356" lon="4.490015689086">
        <ele>0</ele>
        <time>2020-07-11T16:01:26Z</time>
      </trkpt>
      <trkpt lat="51.199413322475" lon="4.490496558689">
        <ele>0.4</ele>
        <time>2020-07-11T16:01:38Z</time>
      </trkpt>
      <trkpt lat="51.199413071018" lon="4.490528912823">
        <ele>0.6</ele>
        <time>2020-07-11T16:01:39Z</time>
      </trkpt>
      <trkpt lat="51.199417261968" lon="4.490532768497">
        <ele>1.8</ele>
        <time>2020-07-11T16:02:10Z</time>
      </trkpt>
      <trkpt lat="51.199428661352" lon="4.490567050468">
        <ele>1.8</ele>
        <time>2020-07-11T16:02:12Z</time>
      </trkpt>
      <trkpt lat="51.199485406815" lon="4.490656904436">
        <ele>1.8</ele>
        <time>2020-07-11T16:02:16Z</time>
      </trkpt>
      <trkpt lat="51.199461015486" lon="4.490732425355">
        <ele>1.8</ele>
        <time>2020-07-11T16:02:19Z</time>
      </trkpt>
      <trkpt lat="51.195462262453" lon="4.502070872942">
        <ele>0</ele>
        <time>2020-07-11T16:35:32Z</time>
      </trkpt>
      <trkpt lat="51.195550859136" lon="4.502206575903">
        <ele>2.4</ele>
        <time>2020-07-11T16:35:36Z</time>
      </trkpt>
      <trkpt lat="51.195611879368" lon="4.502797080758">
        <ele>5.8</ele>
        <time>2020-07-11T16:35:49Z</time>
      </trkpt>
      <trkpt lat="51.195502327935" lon="4.502854412954">
        <ele>7.8</ele>
        <time>2020-07-11T16:35:56Z</time>
      </trkpt>
      <trkpt lat="51.195473829475" lon="4.502863046311">
        <ele>8.4</ele>
        <time>2020-07-11T16:35:58Z</time>
      </trkpt>
      <trkpt lat="51.195592768636" lon="4.502759781303">
        <ele>9.2</ele>
        <time>2020-07-11T16:36:05Z</time>
      </trkpt>
      <trkpt lat="51.195591092256" lon="4.502456775618">
        <ele>9</ele>
        <time>2020-07-11T16:36:16Z</time>
      </trkpt>
      <trkpt lat="51.195610286807" lon="4.502530536338">
        <ele>9.4</ele>
        <time>2020-07-11T16:37:21Z</time>
      </trkpt>
      <trkpt lat="51.195609532436" lon="4.50254964707">
        <ele>9.4</ele>
        <time>2020-07-11T16:37:22Z</time>
      </trkpt>
      <trkpt lat="51.195659153284" lon="4.502948206415">
        <ele>9.2</ele>
        <time>2020-07-11T16:37:42Z</time>
      </trkpt>
      <trkpt lat="51.195750348356" lon="4.502920043231">
        <ele>9.4</ele>
        <time>2020-07-11T16:38:25Z</time>
      </trkpt>
      <trkpt lat="51.196277066952" lon="4.502672358086">
        <ele>8.8</ele>
        <time>2020-07-11T16:38:46Z</time>
      </trkpt>
      <trkpt lat="51.196817280407" lon="4.502480412576">
        <ele>9</ele>
        <time>2020-07-11T16:39:06Z</time>
      </trkpt>
      <trkpt lat="51.197344669555" lon="4.502288467066">
        <ele>8.6</ele>
        <time>2020-07-11T16:39:28Z</time>
      </trkpt>
      <trkpt lat="51.197889995969" lon="4.50208445162">
        <ele>6.8</ele>
        <time>2020-07-11T16:39:46Z</time>
      </trkpt>
      <trkpt lat="51.198418977678" lon="4.501907425892">
        <ele>6</ele>
        <time>2020-07-11T16:40:04Z</time>
      </trkpt>
      <trkpt lat="51.198944858084" lon="4.501689915587">
        <ele>6</ele>
        <time>2020-07-11T16:40:21Z</time>
      </trkpt>
      <trkpt lat="51.199496135647" lon="4.501469471617">
        <ele>5.4</ele>
        <time>2020-07-11T16:40:39Z</time>
      </trkpt>
      <trkpt lat="51.200020758768" lon="4.501177613859">
        <ele>4.2</ele>
        <time>2020-07-11T16:40:56Z</time>
      </trkpt>
      <trkpt lat="51.20054529807" lon="4.500877374201">
        <ele>4.6</ele>
        <time>2020-07-11T16:41:14Z</time>
      </trkpt>
      <trkpt lat="51.200830869403" lon="4.500711412581">
        <ele>3.6</ele>
        <time>2020-07-11T16:41:28Z</time>
      </trkpt>
      <trkpt lat="51.200833383973" lon="4.500657265507">
        <ele>3.4</ele>
        <time>2020-07-11T16:41:30Z</time>
      </trkpt>
      <trkpt lat="51.200671445665" lon="4.499816980032">
        <ele>3.4</ele>
        <time>2020-07-11T16:41:49Z</time>
      </trkpt>
      <trkpt lat="51.200530043012" lon="4.498988513036">
        <ele>4.4</ele>
        <time>2020-07-11T16:42:06Z</time>
      </trkpt>
      <trkpt lat="51.200401548485" lon="4.498138420738">
        <ele>5</ele>
        <time>2020-07-11T16:42:25Z</time>
      </trkpt>
      <trkpt lat="51.200402302856" lon="4.497255471392">
        <ele>4.6</ele>
        <time>2020-07-11T16:42:44Z</time>
      </trkpt>
      <trkpt lat="51.200471872626" lon="4.49704692972">
        <ele>5.6</ele>
        <time>2020-07-11T16:42:51Z</time>
      </trkpt>
      <trkpt lat="51.20050338857" lon="4.49710476483">
        <ele>5.8</ele>
        <time>2020-07-11T16:42:53Z</time>
      </trkpt>
      <trkpt lat="51.200760461443" lon="4.497856956536">
        <ele>7.4</ele>
        <time>2020-07-11T16:43:11Z</time>
      </trkpt>
      <trkpt lat="51.201139490961" lon="4.498466488304">
        <ele>6.8</ele>
        <time>2020-07-11T16:43:32Z</time>
      </trkpt>
      <trkpt lat="51.201633603966" lon="4.498899916353">
        <ele>8.2</ele>
        <time>2020-07-11T16:43:50Z</time>
      </trkpt>
      <trkpt lat="51.202180271484" lon="4.498949118106">
        <ele>3.8</ele>
        <time>2020-07-11T16:44:06Z</time>
      </trkpt>
      <trkpt lat="51.202695339239" lon="4.498653153217">
        <ele>1.8</ele>
        <time>2020-07-11T16:44:21Z</time>
      </trkpt>
      <trkpt lat="51.203130611306" lon="4.498213019648">
        <ele>2.6</ele>
        <time>2020-07-11T16:44:38Z</time>
      </trkpt>
      <trkpt lat="51.203657078445" lon="4.498513594582">
        <ele>4</ele>
        <time>2020-07-11T16:44:57Z</time>
      </trkpt>
      <trkpt lat="51.204196286072" lon="4.498761112089">
        <ele>7.8</ele>
        <time>2020-07-11T16:45:15Z</time>
      </trkpt>
      <trkpt lat="51.204712275836" lon="4.498491550185">
        <ele>4.4</ele>
        <time>2020-07-11T16:45:31Z</time>
      </trkpt>
      <trkpt lat="51.205079570694" lon="4.497845640971">
        <ele>3.8</ele>
        <time>2020-07-11T16:45:48Z</time>
      </trkpt>
      <trkpt lat="51.205210328334" lon="4.497000074899">
        <ele>2.4</ele>
        <time>2020-07-11T16:46:06Z</time>
      </trkpt>
      <trkpt lat="51.205367824235" lon="4.496183761658">
        <ele>4.6</ele>
        <time>2020-07-11T16:46:32Z</time>
      </trkpt>
      <trkpt lat="51.20557108531" lon="4.495354121196">
        <ele>4</ele>
        <time>2020-07-11T16:46:50Z</time>
      </trkpt>
      <trkpt lat="51.205721708053" lon="4.494537724136">
        <ele>0.4</ele>
        <time>2020-07-11T16:47:10Z</time>
      </trkpt>
      <trkpt lat="51.205728832668" lon="4.494145199759">
        <ele>0</ele>
        <time>2020-07-11T16:47:18Z</time>
      </trkpt>
      <trkpt lat="51.205762611725" lon="4.494070768487">
        <ele>1.2</ele>
        <time>2020-07-11T16:47:22Z</time>
      </trkpt>
      <trkpt lat="51.206313637831" lon="4.494120137878">
        <ele>3.8</ele>
        <time>2020-07-11T16:47:46Z</time>
      </trkpt>
      <trkpt lat="51.206863993385" lon="4.494164729586">
        <ele>7.2</ele>
        <time>2020-07-11T16:48:07Z</time>
      </trkpt>
      <trkpt lat="51.207411918188" lon="4.494123909733">
        <ele>5.2</ele>
        <time>2020-07-11T16:48:30Z</time>
      </trkpt>
      <trkpt lat="51.207954730032" lon="4.494107062114">
        <ele>4.2</ele>
        <time>2020-07-11T16:48:53Z</time>
      </trkpt>
      <trkpt lat="51.208505420862" lon="4.494161544464">
        <ele>4.2</ele>
        <time>2020-07-11T16:49:16Z</time>
      </trkpt>
      <trkpt lat="51.208897107049" lon="4.494162047378">
        <ele>3.6</ele>
        <time>2020-07-11T16:49:34Z</time>
      </trkpt>
      <trkpt lat="51.208923258577" lon="4.493275409996">
        <ele>2.8</ele>
        <time>2020-07-11T16:49:54Z</time>
      </trkpt>
      <trkpt lat="51.209355345522" lon="4.493139371759">
        <ele>4</ele>
        <time>2020-07-11T16:50:11Z</time>
      </trkpt>
      <trkpt lat="51.209837723867" lon="4.49330944051">
        <ele>6</ele>
        <time>2020-07-11T16:50:29Z</time>
      </trkpt>
      <trkpt lat="51.210325718085" lon="4.493678411748">
        <ele>7.8</ele>
        <time>2020-07-11T16:50:51Z</time>
      </trkpt>
      <trkpt lat="51.210537696336" lon="4.494087699925">
        <ele>3.8</ele>
        <time>2020-07-11T16:51:04Z</time>
      </trkpt>
      <trkpt lat="51.210592849238" lon="4.494061464578">
        <ele>2.8</ele>
        <time>2020-07-11T16:51:06Z</time>
      </trkpt>
      <trkpt lat="51.211106240613" lon="4.494406128306">
        <ele>1</ele>
        <time>2020-07-11T16:51:25Z</time>
      </trkpt>
      <trkpt lat="51.211646873163" lon="4.494395902388">
        <ele>0</ele>
        <time>2020-07-11T16:51:44Z</time>
      </trkpt>
      <trkpt lat="51.211692722156" lon="4.494368996489">
        <ele>0</ele>
        <time>2020-07-11T16:51:48Z</time>
      </trkpt>
      <trkpt lat="51.211716442933" lon="4.494347287368">
        <ele>0</ele>
        <time>2020-07-11T16:51:54Z</time>
      </trkpt>
      <trkpt lat="51.21172759086" lon="4.494333876328">
        <ele>0.6</ele>
        <time>2020-07-11T16:51:55Z</time>
      </trkpt>
      <trkpt lat="51.212165293678" lon="4.493822664247">
        <ele>1.4</ele>
        <time>2020-07-11T16:52:14Z</time>
      </trkpt>
      <trkpt lat="51.213004740963" lon="4.494158191704">
        <ele>0.6</ele>
        <time>2020-07-11T16:52:47Z</time>
      </trkpt>
      <trkpt lat="51.212895524806" lon="4.494932092531">
        <ele>4.4</ele>
        <time>2020-07-11T16:53:07Z</time>
      </trkpt>
      <trkpt lat="51.212670889886" lon="4.495738766587">
        <ele>6.8</ele>
        <time>2020-07-11T16:53:25Z</time>
      </trkpt>
      <trkpt lat="51.212428820614" lon="4.496508895559">
        <ele>4.4</ele>
        <time>2020-07-11T16:53:44Z</time>
      </trkpt>
      <trkpt lat="51.212167221515" lon="4.497282964024">
        <ele>0.8</ele>
        <time>2020-07-11T16:54:04Z</time>
      </trkpt>
      <trkpt lat="51.211883242743" lon="4.498043621449">
        <ele>2.6</ele>
        <time>2020-07-11T16:54:23Z</time>
      </trkpt>
      <trkpt lat="51.21168735774" lon="4.498821880864">
        <ele>7.2</ele>
        <time>2020-07-11T16:54:55Z</time>
      </trkpt>
      <trkpt lat="51.211190562527" lon="4.499263523175">
        <ele>11.2</ele>
        <time>2020-07-11T16:55:13Z</time>
      </trkpt>
      <trkpt lat="51.21075026132" lon="4.499818488774">
        <ele>0.6</ele>
        <time>2020-07-11T16:55:35Z</time>
      </trkpt>
      <trkpt lat="51.210556052697" lon="4.499824523742">
        <ele>3.2</ele>
        <time>2020-07-11T16:55:42Z</time>
      </trkpt>
      <trkpt lat="51.210434598966" lon="4.5000325625">
        <ele>4.2</ele>
        <time>2020-07-11T16:55:53Z</time>
      </trkpt>
      <trkpt lat="51.210566613891" lon="4.50078190436">
        <ele>2.2</ele>
        <time>2020-07-11T16:56:15Z</time>
      </trkpt>
      <trkpt lat="51.210734000434" lon="4.501597882325">
        <ele>1.4</ele>
        <time>2020-07-11T16:56:31Z</time>
      </trkpt>
      <trkpt lat="51.210939859898" lon="4.50243984418">
        <ele>0.4</ele>
        <time>2020-07-11T16:56:49Z</time>
      </trkpt>
      <trkpt lat="51.211143456249" lon="4.503245177132">
        <ele>1.8</ele>
        <time>2020-07-11T16:57:06Z</time>
      </trkpt>
      <trkpt lat="51.211253426777" lon="4.504106249719">
        <ele>2.2</ele>
        <time>2020-07-11T16:57:23Z</time>
      </trkpt>
      <trkpt lat="51.211293576078" lon="4.504972435265">
        <ele>3.8</ele>
        <time>2020-07-11T16:57:39Z</time>
      </trkpt>
      <trkpt lat="51.211311513344" lon="4.505835687146">
        <ele>4.6</ele>
        <time>2020-07-11T16:57:58Z</time>
      </trkpt>
      <trkpt lat="51.211349734808" lon="4.506717043931">
        <ele>4.8</ele>
        <time>2020-07-11T16:58:25Z</time>
      </trkpt>
      <trkpt lat="51.211375886336" lon="4.507596724336">
        <ele>6.8</ele>
        <time>2020-07-11T16:58:52Z</time>
      </trkpt>
      <trkpt lat="51.211399104199" lon="4.508490570152">
        <ele>6.6</ele>
        <time>2020-07-11T16:59:14Z</time>
      </trkpt>
      <trkpt lat="51.211435146369" lon="4.509393719877">
        <ele>5.8</ele>
        <time>2020-07-11T16:59:35Z</time>
      </trkpt>
      <trkpt lat="51.211472864919" lon="4.510297623973">
        <ele>6.8</ele>
        <time>2020-07-11T16:59:54Z</time>
      </trkpt>
      <trkpt lat="51.211490299271" lon="4.5111637257">
        <ele>6</ele>
        <time>2020-07-11T17:00:13Z</time>
      </trkpt>
      <trkpt lat="51.211518294817" lon="4.512049273435">
        <ele>6.2</ele>
        <time>2020-07-11T17:00:32Z</time>
      </trkpt>
      <trkpt lat="51.211534471884" lon="4.512941945785">
        <ele>6.2</ele>
        <time>2020-07-11T17:00:50Z</time>
      </trkpt>
      <trkpt lat="51.211483258475" lon="4.513343103519">
        <ele>5.8</ele>
        <time>2020-07-11T17:01:00Z</time>
      </trkpt>
      <trkpt lat="51.210929801618" lon="4.513527589138">
        <ele>4.8</ele>
        <time>2020-07-11T17:01:21Z</time>
      </trkpt>
      <trkpt lat="51.210414482406" lon="4.513774016998">
        <ele>4</ele>
        <time>2020-07-11T17:01:36Z</time>
      </trkpt>
      <trkpt lat="51.210395874588" lon="4.513909049407">
        <ele>1.2</ele>
        <time>2020-07-11T17:01:40Z</time>
      </trkpt>
      <trkpt lat="51.210736515004" lon="4.513937128772">
        <ele>4.4</ele>
        <time>2020-07-11T17:02:08Z</time>
      </trkpt>
      <trkpt lat="51.211855414835" lon="4.513826906787">
        <ele>10.8</ele>
        <time>2020-07-11T17:04:42Z</time>
      </trkpt>
      <trkpt lat="51.212413062642" lon="4.513785667839">
        <ele>9.2</ele>
        <time>2020-07-11T17:05:01Z</time>
      </trkpt>
      <trkpt lat="51.212537450038" lon="4.513716768621">
        <ele>8.2</ele>
        <time>2020-07-11T17:05:04Z</time>
      </trkpt>
      <trkpt lat="51.213030473396" lon="4.513167418895">
        <ele>4</ele>
        <time>2020-07-11T17:05:14Z</time>
      </trkpt>
      <trkpt lat="51.21338217792" lon="4.512745138773">
        <ele>0.6</ele>
        <time>2020-07-11T17:05:20Z</time>
      </trkpt>
      <trkpt lat="51.213401540109" lon="4.51251404979">
        <ele>0</ele>
        <time>2020-07-11T17:05:22Z</time>
      </trkpt>
      <trkpt lat="51.213356026392" lon="4.512289833965">
        <ele>0</ele>
        <time>2020-07-11T17:05:24Z</time>
      </trkpt>
      <trkpt lat="51.213245972045" lon="4.512021361708">
        <ele>1</ele>
        <time>2020-07-11T17:05:27Z</time>
      </trkpt>
      <trkpt lat="51.213177240465" lon="4.51186696711">
        <ele>0.8</ele>
        <time>2020-07-11T17:05:29Z</time>
      </trkpt>
      <trkpt lat="51.213132816395" lon="4.51171441653">
        <ele>0.8</ele>
        <time>2020-07-11T17:05:31Z</time>
      </trkpt>
      <trkpt lat="51.21306869486" lon="4.511588101297">
        <ele>0.8</ele>
        <time>2020-07-11T17:05:33Z</time>
      </trkpt>
      <trkpt lat="51.213019576926" lon="4.511466060833">
        <ele>1.4</ele>
        <time>2020-07-11T17:05:35Z</time>
      </trkpt>
      <trkpt lat="51.212970207535" lon="4.511359359246">
        <ele>1.4</ele>
        <time>2020-07-11T17:05:37Z</time>
      </trkpt>
      <trkpt lat="51.212893345512" lon="4.510978653348">
        <ele>1.8</ele>
        <time>2020-07-11T17:05:44Z</time>
      </trkpt>
      <trkpt lat="51.212676673397" lon="4.510175751147">
        <ele>3.8</ele>
        <time>2020-07-11T17:06:05Z</time>
      </trkpt>
      <trkpt lat="51.212420354895" lon="4.509405622175">
        <ele>3.8</ele>
        <time>2020-07-11T17:06:24Z</time>
      </trkpt>
      <trkpt lat="51.212160683633" lon="4.508621327792">
        <ele>3.6</ele>
        <time>2020-07-11T17:06:46Z</time>
      </trkpt>
      <trkpt lat="51.212107039473" lon="4.508425861884">
        <ele>3.6</ele>
        <time>2020-07-11T17:06:55Z</time>
      </trkpt>
      <trkpt lat="51.212103602894" lon="4.508372720638">
        <ele>2.8</ele>
        <time>2020-07-11T17:07:42Z</time>
      </trkpt>
      <trkpt lat="51.212050042553" lon="4.507500416305">
        <ele>3</ele>
        <time>2020-07-11T17:08:03Z</time>
      </trkpt>
      <trkpt lat="51.21203855935" lon="4.506629033981">
        <ele>2.4</ele>
        <time>2020-07-11T17:08:19Z</time>
      </trkpt>
      <trkpt lat="51.212029003984" lon="4.505766536471">
        <ele>1.8</ele>
        <time>2020-07-11T17:08:34Z</time>
      </trkpt>
      <trkpt lat="51.212049791096" lon="4.504852657914">
        <ele>1.4</ele>
        <time>2020-07-11T17:08:52Z</time>
      </trkpt>
      <trkpt lat="51.212046354517" lon="4.503939449909">
        <ele>0.6</ele>
        <time>2020-07-11T17:09:08Z</time>
      </trkpt>
      <trkpt lat="51.212033614029" lon="4.503050214138">
        <ele>0.2</ele>
        <time>2020-07-11T17:09:23Z</time>
      </trkpt>
      <trkpt lat="51.212012240184" lon="4.502173132122">
        <ele>0.4</ele>
        <time>2020-07-11T17:09:39Z</time>
      </trkpt>
      <trkpt lat="51.211996901307" lon="4.501294541364">
        <ele>2.4</ele>
        <time>2020-07-11T17:09:56Z</time>
      </trkpt>
      <trkpt lat="51.211982735896" lon="4.500401198462">
        <ele>6.2</ele>
        <time>2020-07-11T17:10:15Z</time>
      </trkpt>
      <trkpt lat="51.211962619336" lon="4.499487739">
        <ele>8.8</ele>
        <time>2020-07-11T17:10:33Z</time>
      </trkpt>
      <trkpt lat="51.211993883823" lon="4.498598838505">
        <ele>1.2</ele>
        <time>2020-07-11T17:10:51Z</time>
      </trkpt>
      <trkpt lat="51.212165461316" lon="4.497780010694">
        <ele>0</ele>
        <time>2020-07-11T17:11:10Z</time>
      </trkpt>
      <trkpt lat="51.212402249991" lon="4.497002254193">
        <ele>0</ele>
        <time>2020-07-11T17:11:26Z</time>
      </trkpt>
      <trkpt lat="51.212754960343" lon="4.496472937208">
        <ele>0</ele>
        <time>2020-07-11T17:11:45Z</time>
      </trkpt>
      <trkpt lat="51.213303136603" lon="4.496548374308">
        <ele>0.4</ele>
        <time>2020-07-11T17:12:04Z</time>
      </trkpt>
      <trkpt lat="51.21382474224" lon="4.496247045003">
        <ele>2.2</ele>
        <time>2020-07-11T17:12:19Z</time>
      </trkpt>
      <trkpt lat="51.214357914899" lon="4.496042861919">
        <ele>1</ele>
        <time>2020-07-11T17:12:36Z</time>
      </trkpt>
      <trkpt lat="51.214902067847" lon="4.495935238323">
        <ele>1</ele>
        <time>2020-07-11T17:12:53Z</time>
      </trkpt>
      <trkpt lat="51.215330047661" lon="4.49543592854">
        <ele>0</ele>
        <time>2020-07-11T17:13:12Z</time>
      </trkpt>
      <trkpt lat="51.215825837046" lon="4.495479179144">
        <ele>0.2</ele>
        <time>2020-07-11T17:13:31Z</time>
      </trkpt>
      <trkpt lat="51.216351968909" lon="4.495741784071">
        <ele>0.4</ele>
        <time>2020-07-11T17:13:51Z</time>
      </trkpt>
      <trkpt lat="51.216882124084" lon="4.495899196153">
        <ele>1</ele>
        <time>2020-07-11T17:14:08Z</time>
      </trkpt>
      <trkpt lat="51.217415212924" lon="4.496057278787">
        <ele>0.6</ele>
        <time>2020-07-11T17:14:23Z</time>
      </trkpt>
      <trkpt lat="51.217961377528" lon="4.496284763553">
        <ele>0</ele>
        <time>2020-07-11T17:14:41Z</time>
      </trkpt>
      <trkpt lat="51.218480971509" lon="4.496615764784">
        <ele>0</ele>
        <time>2020-07-11T17:14:59Z</time>
      </trkpt>
      <trkpt lat="51.219003415336" lon="4.496894630597">
        <ele>0</ele>
        <time>2020-07-11T17:15:18Z</time>
      </trkpt>
      <trkpt lat="51.219524518059" lon="4.497215741186">
        <ele>1</ele>
        <time>2020-07-11T17:15:37Z</time>
      </trkpt>
      <trkpt lat="51.220043441488" lon="4.497519333604">
        <ele>2.4</ele>
        <time>2020-07-11T17:16:00Z</time>
      </trkpt>
      <trkpt lat="51.220550797895" lon="4.497835834148">
        <ele>2.4</ele>
        <time>2020-07-11T17:16:19Z</time>
      </trkpt>
      <trkpt lat="51.220859084177" lon="4.498156190366">
        <ele>1.8</ele>
        <time>2020-07-11T17:16:35Z</time>
      </trkpt>
      <trkpt lat="51.221103332743" lon="4.498154011072">
        <ele>1.8</ele>
        <time>2020-07-11T17:16:52Z</time>
      </trkpt>
      <trkpt lat="51.221156222532" lon="4.497916551845">
        <ele>1.2</ele>
        <time>2020-07-11T17:17:37Z</time>
      </trkpt>
      <trkpt lat="51.221125712416" lon="4.49786584135">
        <ele>1.2</ele>
        <time>2020-07-11T17:17:39Z</time>
      </trkpt>
      <trkpt lat="51.220603268589" lon="4.497550933367">
        <ele>1.4</ele>
        <time>2020-07-11T17:17:55Z</time>
      </trkpt>
      <trkpt lat="51.220283918199" lon="4.497328813017">
        <ele>1.6</ele>
        <time>2020-07-11T17:18:05Z</time>
      </trkpt>
      <trkpt lat="51.220276374489" lon="4.497247927682">
        <ele>1.4</ele>
        <time>2020-07-11T17:18:07Z</time>
      </trkpt>
      <trkpt lat="51.220278553783" lon="4.497232253529">
        <ele>1.4</ele>
        <time>2020-07-11T17:18:09Z</time>
      </trkpt>
      <trkpt lat="51.220285007846" lon="4.497210292951">
        <ele>1.4</ele>
        <time>2020-07-11T17:18:14Z</time>
      </trkpt>
      <trkpt lat="51.220297413058" lon="4.49717517279">
        <ele>1.2</ele>
        <time>2020-07-11T17:18:16Z</time>
      </trkpt>
      <trkpt lat="51.220162799744" lon="4.496379898118">
        <ele>1.8</ele>
        <time>2020-07-11T17:18:34Z</time>
      </trkpt>
      <trkpt lat="51.219889968899" lon="4.495688978101">
        <ele>11.2</ele>
        <time>2020-07-11T17:18:53Z</time>
      </trkpt>
      <trkpt lat="51.219339780983" lon="4.495697862915">
        <ele>8.2</ele>
        <time>2020-07-11T17:19:10Z</time>
      </trkpt>
      <trkpt lat="51.218751120146" lon="4.495711860688">
        <ele>3.4</ele>
        <time>2020-07-11T17:19:23Z</time>
      </trkpt>
      <trkpt lat="51.218594797711" lon="4.495692749956">
        <ele>3</ele>
        <time>2020-07-11T17:19:26Z</time>
      </trkpt>
      <trkpt lat="51.218247367956" lon="4.495687217902">
        <ele>2.4</ele>
        <time>2020-07-11T17:19:33Z</time>
      </trkpt>
      <trkpt lat="51.217980739717" lon="4.494906863012">
        <ele>2.8</ele>
        <time>2020-07-11T17:19:56Z</time>
      </trkpt>
      <trkpt lat="51.217704891388" lon="4.494127849226">
        <ele>1.6</ele>
        <time>2020-07-11T17:20:18Z</time>
      </trkpt>
      <trkpt lat="51.217616378524" lon="4.493271135227">
        <ele>1.6</ele>
        <time>2020-07-11T17:20:38Z</time>
      </trkpt>
      <trkpt lat="51.217588299159" lon="4.492417187255">
        <ele>1.6</ele>
        <time>2020-07-11T17:21:00Z</time>
      </trkpt>
      <trkpt lat="51.217531302239" lon="4.491698606968">
        <ele>1.2</ele>
        <time>2020-07-11T17:21:17Z</time>
      </trkpt>
      <trkpt lat="51.217529039126" lon="4.491611938122">
        <ele>1.2</ele>
        <time>2020-07-11T17:21:19Z</time>
      </trkpt>
      <trkpt lat="51.217488722187" lon="4.490740304341">
        <ele>1.6</ele>
        <time>2020-07-11T17:21:39Z</time>
      </trkpt>
      <trkpt lat="51.217429629792" lon="4.48986867056">
        <ele>1.2</ele>
        <time>2020-07-11T17:22:00Z</time>
      </trkpt>
      <trkpt lat="51.217383194066" lon="4.489242710268">
        <ele>1.2</ele>
        <time>2020-07-11T17:22:16Z</time>
      </trkpt>
      <trkpt lat="51.217274648461" lon="4.488392869427">
        <ele>1</ele>
        <time>2020-07-11T17:22:41Z</time>
      </trkpt>
      <trkpt lat="51.217188314891" lon="4.487535820152">
        <ele>0.2</ele>
        <time>2020-07-11T17:23:05Z</time>
      </trkpt>
      <trkpt lat="51.217117404017" lon="4.4866885777">
        <ele>0</ele>
        <time>2020-07-11T17:23:24Z</time>
      </trkpt>
      <trkpt lat="51.216780954551" lon="4.486455644699">
        <ele>0</ele>
        <time>2020-07-11T17:23:36Z</time>
      </trkpt>
      <trkpt lat="51.216838957299" lon="4.485604630392">
        <ele>0</ele>
        <time>2020-07-11T17:23:56Z</time>
      </trkpt>
      <trkpt lat="51.216882710817" lon="4.484737774294">
        <ele>0.2</ele>
        <time>2020-07-11T17:24:16Z</time>
      </trkpt>
      <trkpt lat="51.216884219559" lon="4.484068647217">
        <ele>0.6</ele>
        <time>2020-07-11T17:24:34Z</time>
      </trkpt>
      <trkpt lat="51.216891176536" lon="4.484021876215">
        <ele>0.4</ele>
        <time>2020-07-11T17:24:36Z</time>
      </trkpt>
      <trkpt lat="51.216917579521" lon="4.483146135303">
        <ele>0</ele>
        <time>2020-07-11T17:25:02Z</time>
      </trkpt>
      <trkpt lat="51.216986478739" lon="4.482297216471">
        <ele>0.2</ele>
        <time>2020-07-11T17:25:25Z</time>
      </trkpt>
      <trkpt lat="51.216989663861" lon="4.482268047459">
        <ele>0.2</ele>
        <time>2020-07-11T17:25:26Z</time>
      </trkpt>
      <trkpt lat="51.217050684093" lon="4.482033940992">
        <ele>0.6</ele>
        <time>2020-07-11T17:25:53Z</time>
      </trkpt>
      <trkpt lat="51.217036099587" lon="4.481182088495">
        <ele>0</ele>
        <time>2020-07-11T17:26:14Z</time>
      </trkpt>
      <trkpt lat="51.217080775114" lon="4.48030240809">
        <ele>0</ele>
        <time>2020-07-11T17:26:31Z</time>
      </trkpt>
      <trkpt lat="51.217139113138" lon="4.479408729912">
        <ele>0.6</ele>
        <time>2020-07-11T17:26:49Z</time>
      </trkpt>
      <trkpt lat="51.217183956303" lon="4.478532989">
        <ele>1.8</ele>
        <time>2020-07-11T17:27:08Z</time>
      </trkpt>
      <trkpt lat="51.217223854147" lon="4.477664372703">
        <ele>4.2</ele>
        <time>2020-07-11T17:27:30Z</time>
      </trkpt>
      <trkpt lat="51.21728730513" lon="4.476766252118">
        <ele>1.4</ele>
        <time>2020-07-11T17:27:52Z</time>
      </trkpt>
      <trkpt lat="51.217337345073" lon="4.475904676617">
        <ele>2.2</ele>
        <time>2020-07-11T17:28:12Z</time>
      </trkpt>
      <trkpt lat="51.217384954265" lon="4.475030863542">
        <ele>2.6</ele>
        <time>2020-07-11T17:28:34Z</time>
      </trkpt>
      <trkpt lat="51.217406747205" lon="4.47412662417">
        <ele>0</ele>
        <time>2020-07-11T17:28:49Z</time>
      </trkpt>
      <trkpt lat="51.217404316454" lon="4.47322054078">
        <ele>1.6</ele>
        <time>2020-07-11T17:29:04Z</time>
      </trkpt>
      <trkpt lat="51.217427701955" lon="4.47235720508">
        <ele>1.6</ele>
        <time>2020-07-11T17:29:21Z</time>
      </trkpt>
      <trkpt lat="51.217422588996" lon="4.472275733012">
        <ele>0.2</ele>
        <time>2020-07-11T17:29:22Z</time>
      </trkpt>
      <trkpt lat="51.21741890096" lon="4.472181017542">
        <ele>0</ele>
        <time>2020-07-11T17:29:25Z</time>
      </trkpt>
      <trkpt lat="51.217488135454" lon="4.471327823941">
        <ele>0</ele>
        <time>2020-07-11T17:29:41Z</time>
      </trkpt>
      <trkpt lat="51.217517220647" lon="4.470433726668">
        <ele>0</ele>
        <time>2020-07-11T17:29:58Z</time>
      </trkpt>
      <trkpt lat="51.21757145154" lon="4.469548346571">
        <ele>0</ele>
        <time>2020-07-11T17:30:16Z</time>
      </trkpt>
      <trkpt lat="51.21755971688" lon="4.468662044465">
        <ele>0</ele>
        <time>2020-07-11T17:30:37Z</time>
      </trkpt>
      <trkpt lat="51.217608248081" lon="4.467778676024">
        <ele>0.4</ele>
        <time>2020-07-11T17:30:57Z</time>
      </trkpt>
      <trkpt lat="51.217678991317" lon="4.466922464939">
        <ele>0</ele>
        <time>2020-07-11T17:31:18Z</time>
      </trkpt>
      <trkpt lat="51.217737748436" lon="4.466037420118">
        <ele>1.4</ele>
        <time>2020-07-11T17:31:38Z</time>
      </trkpt>
      <trkpt lat="51.217729617993" lon="4.465868860109">
        <ele>3</ele>
        <time>2020-07-11T17:31:42Z</time>
      </trkpt>
      <trkpt lat="51.217715201125" lon="4.465770121327">
        <ele>2.8</ele>
        <time>2020-07-11T17:31:44Z</time>
      </trkpt>
      <trkpt lat="51.217722158102" lon="4.465618911851">
        <ele>3</ele>
        <time>2020-07-11T17:31:47Z</time>
      </trkpt>
      <trkpt lat="51.217706483949" lon="4.465413220025">
        <ele>2.4</ele>
        <time>2020-07-11T17:31:51Z</time>
      </trkpt>
      <trkpt lat="51.217787285465" lon="4.464559104415">
        <ele>4.6</ele>
        <time>2020-07-11T17:32:09Z</time>
      </trkpt>
      <trkpt lat="51.217812263527" lon="4.46367607125">
        <ele>1.2</ele>
        <time>2020-07-11T17:32:27Z</time>
      </trkpt>
      <trkpt lat="51.217814191364" lon="4.462787254574">
        <ele>0</ele>
        <time>2020-07-11T17:32:43Z</time>
      </trkpt>
      <trkpt lat="51.217871104465" lon="4.46192676872">
        <ele>0</ele>
        <time>2020-07-11T17:33:00Z</time>
      </trkpt>
      <trkpt lat="51.217912427232" lon="4.46105588931">
        <ele>0</ele>
        <time>2020-07-11T17:33:22Z</time>
      </trkpt>
      <trkpt lat="51.217944697547" lon="4.460189368488">
        <ele>0</ele>
        <time>2020-07-11T17:33:41Z</time>
      </trkpt>
      <trkpt lat="51.217944194633" lon="4.459938665859">
        <ele>0</ele>
        <time>2020-07-11T17:33:51Z</time>
      </trkpt>
      <trkpt lat="51.217931370326" lon="4.459776727551">
        <ele>0</ele>
        <time>2020-07-11T17:33:57Z</time>
      </trkpt>
      <trkpt lat="51.217891723939" lon="4.45950859057">
        <ele>2</ele>
        <time>2020-07-11T17:36:33Z</time>
      </trkpt>
      <trkpt lat="51.217903542418" lon="4.459500460127">
        <ele>2.8</ele>
        <time>2020-07-11T17:36:34Z</time>
      </trkpt>
      <trkpt lat="51.217935309819" lon="4.459476823169">
        <ele>3.6</ele>
        <time>2020-07-11T17:36:37Z</time>
      </trkpt>
      <trkpt lat="51.217984092477" lon="4.458628155794">
        <ele>1.2</ele>
        <time>2020-07-11T17:36:56Z</time>
      </trkpt>
      <trkpt lat="51.218088111856" lon="4.457735651082">
        <ele>2.8</ele>
        <time>2020-07-11T17:37:13Z</time>
      </trkpt>
      <trkpt lat="51.218111078262" lon="4.456864771672">
        <ele>0</ele>
        <time>2020-07-11T17:37:28Z</time>
      </trkpt>
      <trkpt lat="51.218154077409" lon="4.45598148705">
        <ele>0.6</ele>
        <time>2020-07-11T17:37:43Z</time>
      </trkpt>
      <trkpt lat="51.218217947487" lon="4.455110691459">
        <ele>0</ele>
        <time>2020-07-11T17:37:57Z</time>
      </trkpt>
      <trkpt lat="51.218254324933" lon="4.454228747941">
        <ele>0</ele>
        <time>2020-07-11T17:38:13Z</time>
      </trkpt>
      <trkpt lat="51.218272848932" lon="4.453334315392">
        <ele>0</ele>
        <time>2020-07-11T17:38:30Z</time>
      </trkpt>
      <trkpt lat="51.218297910813" lon="4.452473578081">
        <ele>0</ele>
        <time>2020-07-11T17:38:47Z</time>
      </trkpt>
      <trkpt lat="51.218435709249" lon="4.451837810966">
        <ele>0</ele>
        <time>2020-07-11T17:39:01Z</time>
      </trkpt>
      <trkpt lat="51.21852279719" lon="4.451795314733">
        <ele>0</ele>
        <time>2020-07-11T17:39:03Z</time>
      </trkpt>
      <trkpt lat="51.21902068205" lon="4.451981225275">
        <ele>0</ele>
        <time>2020-07-11T17:39:19Z</time>
      </trkpt>
      <trkpt lat="51.219107267077" lon="4.452101170264">
        <ele>0</ele>
        <time>2020-07-11T17:39:26Z</time>
      </trkpt>
      <trkpt lat="51.219683774159" lon="4.452021709852">
        <ele>0</ele>
        <time>2020-07-11T17:39:44Z</time>
      </trkpt>
      <trkpt lat="51.220232453333" lon="4.451897490094">
        <ele>6.8</ele>
        <time>2020-07-11T17:40:03Z</time>
      </trkpt>
      <trkpt lat="51.220776606281" lon="4.451859436268">
        <ele>6</ele>
        <time>2020-07-11T17:40:17Z</time>
      </trkpt>
      <trkpt lat="51.221320926867" lon="4.451649553492">
        <ele>11.2</ele>
        <time>2020-07-11T17:40:34Z</time>
      </trkpt>
      <trkpt lat="51.221835156432" lon="4.451356019354">
        <ele>7.6</ele>
        <time>2020-07-11T17:40:48Z</time>
      </trkpt>
      <trkpt lat="51.222365982159" lon="4.451125517104">
        <ele>1.8</ele>
        <time>2020-07-11T17:41:02Z</time>
      </trkpt>
      <trkpt lat="51.222908794003" lon="4.45105879718">
        <ele>0</ele>
        <time>2020-07-11T17:41:18Z</time>
      </trkpt>
      <trkpt lat="51.223436769884" lon="4.451261387703">
        <ele>0</ele>
        <time>2020-07-11T17:41:35Z</time>
      </trkpt>
      <trkpt lat="51.223900372773" lon="4.45177964058">
        <ele>0</ele>
        <time>2020-07-11T17:41:52Z</time>
      </trkpt>
      <trkpt lat="51.224433210156" lon="4.45204199405">
        <ele>0</ele>
        <time>2020-07-11T17:42:11Z</time>
      </trkpt>
      <trkpt lat="51.224490961447" lon="4.452118101702">
        <ele>0</ele>
        <time>2020-07-11T17:42:14Z</time>
      </trkpt>
      <trkpt lat="51.224458774951" lon="4.45217945721">
        <ele>0</ele>
        <time>2020-07-11T17:42:17Z</time>
      </trkpt>
      <trkpt lat="51.223993328044" lon="4.452626715394">
        <ele>0</ele>
        <time>2020-07-11T17:42:35Z</time>
      </trkpt>
      <trkpt lat="51.22367598931" lon="4.452929553441">
        <ele>0</ele>
        <time>2020-07-11T17:42:47Z</time>
      </trkpt>
      <trkpt lat="51.223706247969" lon="4.452997949745">
        <ele>0</ele>
        <time>2020-07-11T17:42:49Z</time>
      </trkpt>
      <trkpt lat="51.223869443562" lon="4.453035919752">
        <ele>0</ele>
        <time>2020-07-11T17:42:56Z</time>
      </trkpt>
      <trkpt lat="51.223854272323" lon="4.45316852141">
        <ele>0</ele>
        <time>2020-07-11T17:43:00Z</time>
      </trkpt>
      <trkpt lat="51.223843794948" lon="4.453192242187">
        <ele>0</ele>
        <time>2020-07-11T17:43:02Z</time>
      </trkpt>
      <trkpt lat="51.22396013572" lon="4.452882866258">
        <ele>0</ele>
        <time>2020-07-11T18:04:17Z</time>
      </trkpt>
      <trkpt lat="51.224185022097" lon="4.452558067633">
        <ele>0</ele>
        <time>2020-07-11T18:04:28Z</time>
      </trkpt>
      <trkpt lat="51.224603949459" lon="4.452118185521">
        <ele>0</ele>
        <time>2020-07-11T18:04:51Z</time>
      </trkpt>
      <trkpt lat="51.224964706435" lon="4.452234358655">
        <ele>0</ele>
        <time>2020-07-11T18:05:05Z</time>
      </trkpt>
      <trkpt lat="51.224996054741" lon="4.452177529373">
        <ele>0</ele>
        <time>2020-07-11T18:05:07Z</time>
      </trkpt>
      <trkpt lat="51.225229742113" lon="4.451793722172">
        <ele>0</ele>
        <time>2020-07-11T18:05:23Z</time>
      </trkpt>
      <trkpt lat="51.225571220719" lon="4.451102299241">
        <ele>0.8</ele>
        <time>2020-07-11T18:05:47Z</time>
      </trkpt>
      <trkpt lat="51.225964667105" lon="4.450486397229">
        <ele>0</ele>
        <time>2020-07-11T18:06:07Z</time>
      </trkpt>
      <trkpt lat="51.226354173998" lon="4.449857335634">
        <ele>0</ele>
        <time>2020-07-11T18:06:26Z</time>
      </trkpt>
      <trkpt lat="51.226775448292" lon="4.449322738052">
        <ele>0</ele>
        <time>2020-07-11T18:06:44Z</time>
      </trkpt>
      <trkpt lat="51.226988097095" lon="4.449298849637">
        <ele>0</ele>
        <time>2020-07-11T18:06:56Z</time>
      </trkpt>
      <trkpt lat="51.227330581529" lon="4.448583203015">
        <ele>0</ele>
        <time>2020-07-11T18:07:15Z</time>
      </trkpt>
      <trkpt lat="51.227712460893" lon="4.447918350707">
        <ele>0</ele>
        <time>2020-07-11T18:07:34Z</time>
      </trkpt>
      <trkpt lat="51.228089478755" lon="4.447291552225">
        <ele>0</ele>
        <time>2020-07-11T18:07:52Z</time>
      </trkpt>
      <trkpt lat="51.228248064303" lon="4.447108072434">
        <ele>0</ele>
        <time>2020-07-11T18:07:59Z</time>
      </trkpt>
      <trkpt lat="51.228651401331" lon="4.447712575062">
        <ele>0</ele>
        <time>2020-07-11T18:08:18Z</time>
      </trkpt>
      <trkpt lat="51.229021881311" lon="4.44836904547">
        <ele>0</ele>
        <time>2020-07-11T18:08:37Z</time>
      </trkpt>
      <trkpt lat="51.229017019809" lon="4.448532995434">
        <ele>0</ele>
        <time>2020-07-11T18:08:43Z</time>
      </trkpt>
      <trkpt lat="51.228628686382" lon="4.449155686785">
        <ele>0</ele>
        <time>2020-07-11T18:09:00Z</time>
      </trkpt>
      <trkpt lat="51.228462808581" lon="4.449241098346">
        <ele>0</ele>
        <time>2020-07-11T18:10:45Z</time>
      </trkpt>
    </trkseg>
  </trk>
</gpx>